Al Rawdah — V7VM8 — position and weather

sailwx.info

Track history (hours):
 
Tides and Currents Weather Stations Pressure Air Temp Water Temp Dewpoint Dewpoint Depression Visibility Wind Speed Wind Dir Waves Ship Positions

Al Rawdah

Last reported at 2015-May-28 08:04 UTC. Time now 2015-May-28 18:09 UTC.
Position N 35°44' E 014°53'.

Length 307 m; draft 12.3 m.

Type: Ship (hazmat cat A). MMSI: 538004160.

Date/timePositionNaut miles runAvg speedWind from/ knotsBaromVisibWave heightAir tempDewpointWater temp
2015-May-28 08:04N 35°44' E 014°53'1019.4
2015-May-28 07:33N 35°46' E 014°41'7 0.5
2015-May-27 17:20N 35°49' E 014°32'1 0.7
2015-May-27 16:33N 35°49' E 014°33'4 4.5
2015-May-27 15:33N 35°45' E 014°32'1514.6
2015-May-27 14:33N 35°46' E 014°14'1716.6
2015-May-27 13:33N 35°57' E 013°58'1616.4
2015-May-27 12:33N 36°08' E 013°43'1616.4
2015-May-27 11:34N 36°19' E 013°28'10116.9
2015-May-27 05:33N 37°39' E 012°10'1919.2
2015-May-27 04:33N 37°54' E 011°56'2117.9
2015-May-27 03:23N 38°13' E 011°43'30017.6
2015-May-26 10:19N 42°58' E 009°39'1215.5
2015-May-26 09:34N 43°09' E 009°34'1717.1
2015-May-26 08:34N 43°25' E 009°25'1717.4
2015-May-26 07:34N 43°42' E 009°18'1817.6
2015-May-26 06:33N 43°58' E 009°09'1817.8
2015-May-26 05:34N 44°15' E 009°00'10 9.9
2015-May-26 04:32N 44°24' E 008°55'0 0.4
2015-May-26 03:32N 44°24' E 008°55'0 0.0
2015-May-26 02:32N 44°24' E 008°55'0 0.0
2015-May-26 01:32N 44°24' E 008°55'0 0.0
2015-May-26 00:32N 44°24' E 008°55'0 0.0
2015-May-25 23:32N 44°24' E 008°55'0 0.0
2015-May-25 22:32N 44°24' E 008°55'0 0.0
2015-May-25 21:32N 44°24' E 008°55'0 0.0
2015-May-25 20:29N 44°24' E 008°55'0 0.0
2015-May-25 19:32N 44°24' E 008°55'0 0.0
2015-May-25 18:32N 44°24' E 008°55'0 0.0
2015-May-25 17:32N 44°24' E 008°55'0 0.0
2015-May-25 16:32N 44°24' E 008°55'0 0.0
2015-May-25 15:29N 44°24' E 008°55'0 0.0
2015-May-25 14:32N 44°24' E 008°55'0 0.0
2015-May-25 13:32N 44°24' E 008°55'0 0.0
2015-May-25 12:32N 44°24' E 008°55'0 0.0
2015-May-25 11:20N 44°24' E 008°55'0 0.0
2015-May-25 10:33N 44°24' E 008°55'0 0.0
2015-May-25 09:33N 44°24' E 008°55'0 0.0
2015-May-25 08:33N 44°24' E 008°55'0 0.0
2015-May-25 07:33N 44°24' E 008°55'0 0.0
2015-May-25 06:33N 44°24' E 008°55'0 0.0
2015-May-25 05:33N 44°24' E 008°55'0 0.0
2015-May-25 04:33N 44°24' E 008°55'1 0.7
2015-May-25 03:33N 44°24' E 008°55'6 5.7
2015-May-25 02:33N 44°19' E 008°60'5 5.2
2015-May-25 01:33N 44°15' E 009°04'1 1.4
2015-May-25 00:33N 44°14' E 009°05'6 6.4
2015-May-24 23:33N 44°08' E 009°09'1111.2
2015-May-24 22:33N 43°59' E 009°18'1110.9
2015-May-24 21:33N 43°50' E 009°26'1110.5
2015-May-24 20:33N 43°41' E 009°34'1010.2
2015-May-24 19:33N 43°34' E 009°44'1110.8
2015-May-24 18:33N 43°30' E 009°58'1010.0
2015-May-24 17:33N 43°30' E 010°12'6 6.0
2015-May-24 16:33N 43°34' E 010°18'0 0.0
2015-May-24 15:32N 43°34' E 010°18'0 0.0
2015-May-24 14:29N 43°34' E 010°18'0 0.0
2015-May-24 13:32N 43°34' E 010°18'0 0.0
2015-May-24 12:32N 43°34' E 010°18'0 0.0
2015-May-24 11:32N 43°34' E 010°18'0 0.0
2015-May-24 10:32N 43°34' E 010°18'0 0.0
2015-May-24 09:32N 43°34' E 010°18'0 0.0
2015-May-24 08:32N 43°34' E 010°18'0 0.0
2015-May-24 07:32N 43°34' E 010°18'0 0.0
2015-May-24 06:32N 43°34' E 010°18'0 0.0
2015-May-24 05:32N 43°34' E 010°18'3 2.7
2015-May-24 04:33N 43°32' E 010°17'3 3.1
2015-May-24 03:33N 43°30' E 010°14'9 8.8
2015-May-24 02:33N 43°29' E 010°02'1414.3
2015-May-24 01:33N 43°30' E 009°42'1515.2
2015-May-24 00:33N 43°24' E 009°23'1515.5
2015-May-23 23:34N 43°19' E 009°02'9215.2
2015-May-23 17:30N 42°45' E 007°05'2215.7
2015-May-23 16:05N 42°37' E 006°37'815.9
2015-May-23 15:33N 42°33' E 006°27'349 7.9
2015-May-21 19:32N 39°30' W 000°08'9 9.4
2015-May-21 18:33N 39°27' W 000°19'0 0.3
2015-May-21 17:33N 39°27' W 000°19'0 0.0
2015-May-21 16:33N 39°27' W 000°19'0 0.0
2015-May-21 15:33N 39°27' W 000°19'0 0.0
2015-May-21 14:33N 39°27' W 000°19'0 0.0
2015-May-21 13:33N 39°27' W 000°19'0 0.0
2015-May-21 12:33N 39°27' W 000°19'0 0.0
2015-May-21 11:33N 39°27' W 000°19'0 0.0
2015-May-21 10:33N 39°27' W 000°19'0 0.0
2015-May-21 09:33N 39°27' W 000°19'0 0.0
2015-May-21 08:33N 39°27' W 000°19'0 0.0
2015-May-21 07:33N 39°27' W 000°19'0 0.0
2015-May-21 06:33N 39°27' W 000°19'0 0.0
2015-May-21 05:33N 39°27' W 000°19'0 0.0
2015-May-21 04:33N 39°27' W 000°19'0 0.0
2015-May-21 03:33N 39°27' W 000°19'0 0.0
2015-May-21 02:33N 39°27' W 000°19'0 0.0
2015-May-21 01:33N 39°27' W 000°19'0 0.0
2015-May-21 00:33N 39°27' W 000°19'0 0.0
2015-May-20 23:33N 39°27' W 000°19'0 0.0
2015-May-20 22:33N 39°27' W 000°19'0 0.0
2015-May-20 21:33N 39°27' W 000°19'0 0.0
2015-May-20 20:33N 39°27' W 000°19'0 0.0
2015-May-20 19:33N 39°27' W 000°19'0 0.0
2015-May-20 18:33N 39°27' W 000°19'0 0.0
2015-May-20 17:33N 39°27' W 000°19'0 0.0
2015-May-20 16:33N 39°27' W 000°19'0 0.0
2015-May-20 15:33N 39°27' W 000°19'0 0.0
2015-May-20 14:33N 39°27' W 000°19'0 0.0
2015-May-20 13:33N 39°27' W 000°19'0 0.0
2015-May-20 12:33N 39°27' W 000°19'0 0.0
2015-May-20 11:33N 39°27' W 000°19'0 0.0
2015-May-20 10:33N 39°27' W 000°19'0 0.0
2015-May-20 09:33N 39°27' W 000°19'0 0.0
2015-May-20 08:33N 39°27' W 000°19'0 0.0
2015-May-20 07:33N 39°27' W 000°19'6 6.5
2015-May-20 06:33N 39°24' W 000°12'7714.1
2015-May-20 01:06N 38°07' W 000°01'917.3
2015-May-20 00:34N 37°59' W 000°07'1717.5
2015-May-19 23:33N 37°44' W 000°19'1717.4
2015-May-19 22:33N 37°31' W 000°34'1818.4
2015-May-19 21:33N 37°19' W 000°51'1918.2
2015-May-19 20:32N 37°05' W 001°07'5217.6
2015-May-19 17:34N 36°31' W 001°57'1817.4
2015-May-19 16:33N 36°22' W 002°15'1818.2
2015-May-19 15:33N 36°19' W 002°37'1817.9
2015-May-19 14:34N 36°16' W 002°59'1817.8
2015-May-19 13:33N 36°14' W 003°21'1717.3
2015-May-19 12:33N 36°09' W 003°42'7318.4
2015-May-19 08:33N 35°60' W 005°12'16 0.8
2015-May-18 13:18N 35°54' W 005°30'  
Track history (hours):
 
Tides and Currents Weather Stations Pressure Air Temp Water Temp Dewpoint Dewpoint Depression Visibility Wind Speed Wind Dir Waves Ship Positions

Al Rawdah

Last reported at 2015-May-28 08:04 UTC. Time now 2015-May-28 18:09 UTC.
Position N 35°44' E 014°53'.

Length 307 m; draft 12.3 m.

Type: Ship (hazmat cat A). MMSI: 538004160.

Date/timePositionNaut miles runAvg speedWind from/ knotsBaromVisibWave heightAir tempDewpointWater temp
2015-May-28 08:04N 35°44' E 014°53'1019.4
2015-May-28 07:33N 35°46' E 014°41'7 0.5
2015-May-27 17:20N 35°49' E 014°32'1 0.7
2015-May-27 16:33N 35°49' E 014°33'4 4.5
2015-May-27 15:33N 35°45' E 014°32'1514.6
2015-May-27 14:33N 35°46' E 014°14'1716.6
2015-May-27 13:33N 35°57' E 013°58'1616.4
2015-May-27 12:33N 36°08' E 013°43'1616.4
2015-May-27 11:34N 36°19' E 013°28'10116.9
2015-May-27 05:33N 37°39' E 012°10'1919.2
2015-May-27 04:33N 37°54' E 011°56'2117.9
2015-May-27 03:23N 38°13' E 011°43'30017.6
2015-May-26 10:19N 42°58' E 009°39'1215.5
2015-May-26 09:34N 43°09' E 009°34'1717.1
2015-May-26 08:34N 43°25' E 009°25'1717.4
2015-May-26 07:34N 43°42' E 009°18'1817.6
2015-May-26 06:33N 43°58' E 009°09'1817.8
2015-May-26 05:34N 44°15' E 009°00'10 9.9
2015-May-26 04:32N 44°24' E 008°55'0 0.4
2015-May-26 03:32N 44°24' E 008°55'0 0.0
2015-May-26 02:32N 44°24' E 008°55'0 0.0
2015-May-26 01:32N 44°24' E 008°55'0 0.0
2015-May-26 00:32N 44°24' E 008°55'0 0.0
2015-May-25 23:32N 44°24' E 008°55'0 0.0
2015-May-25 22:32N 44°24' E 008°55'0 0.0
2015-May-25 21:32N 44°24' E 008°55'0 0.0
2015-May-25 20:29N 44°24' E 008°55'0 0.0
2015-May-25 19:32N 44°24' E 008°55'0 0.0
2015-May-25 18:32N 44°24' E 008°55'0 0.0
2015-May-25 17:32N 44°24' E 008°55'0 0.0
2015-May-25 16:32N 44°24' E 008°55'0 0.0
2015-May-25 15:29N 44°24' E 008°55'0 0.0
2015-May-25 14:32N 44°24' E 008°55'0 0.0
2015-May-25 13:32N 44°24' E 008°55'0 0.0
2015-May-25 12:32N 44°24' E 008°55'0 0.0
2015-May-25 11:20N 44°24' E 008°55'0 0.0
2015-May-25 10:33N 44°24' E 008°55'0 0.0
2015-May-25 09:33N 44°24' E 008°55'0 0.0
2015-May-25 08:33N 44°24' E 008°55'0 0.0
2015-May-25 07:33N 44°24' E 008°55'0 0.0
2015-May-25 06:33N 44°24' E 008°55'0 0.0
2015-May-25 05:33N 44°24' E 008°55'0 0.0
2015-May-25 04:33N 44°24' E 008°55'1 0.7
2015-May-25 03:33N 44°24' E 008°55'6 5.7
2015-May-25 02:33N 44°19' E 008°60'5 5.2
2015-May-25 01:33N 44°15' E 009°04'1 1.4
2015-May-25 00:33N 44°14' E 009°05'6 6.4
2015-May-24 23:33N 44°08' E 009°09'1111.2
2015-May-24 22:33N 43°59' E 009°18'1110.9
2015-May-24 21:33N 43°50' E 009°26'1110.5
2015-May-24 20:33N 43°41' E 009°34'1010.2
2015-May-24 19:33N 43°34' E 009°44'1110.8
2015-May-24 18:33N 43°30' E 009°58'1010.0
2015-May-24 17:33N 43°30' E 010°12'6 6.0
2015-May-24 16:33N 43°34' E 010°18'0 0.0
2015-May-24 15:32N 43°34' E 010°18'0 0.0
2015-May-24 14:29N 43°34' E 010°18'0 0.0
2015-May-24 13:32N 43°34' E 010°18'0 0.0
2015-May-24 12:32N 43°34' E 010°18'0 0.0
2015-May-24 11:32N 43°34' E 010°18'0 0.0
2015-May-24 10:32N 43°34' E 010°18'0 0.0
2015-May-24 09:32N 43°34' E 010°18'0 0.0
2015-May-24 08:32N 43°34' E 010°18'0 0.0
2015-May-24 07:32N 43°34' E 010°18'0 0.0
2015-May-24 06:32N 43°34' E 010°18'0 0.0
2015-May-24 05:32N 43°34' E 010°18'3 2.7
2015-May-24 04:33N 43°32' E 010°17'3 3.1
2015-May-24 03:33N 43°30' E 010°14'9 8.8
2015-May-24 02:33N 43°29' E 010°02'1414.3
2015-May-24 01:33N 43°30' E 009°42'1515.2
2015-May-24 00:33N 43°24' E 009°23'1515.5
2015-May-23 23:34N 43°19' E 009°02'9215.2
2015-May-23 17:30N 42°45' E 007°05'2215.7
2015-May-23 16:05N 42°37' E 006°37'815.9
2015-May-23 15:33N 42°33' E 006°27'349 7.9
2015-May-21 19:32N 39°30' W 000°08'9 9.4
2015-May-21 18:33N 39°27' W 000°19'0 0.3
2015-May-21 17:33N 39°27' W 000°19'0 0.0
2015-May-21 16:33N 39°27' W 000°19'0 0.0
2015-May-21 15:33N 39°27' W 000°19'0 0.0
2015-May-21 14:33N 39°27' W 000°19'0 0.0
2015-May-21 13:33N 39°27' W 000°19'0 0.0
2015-May-21 12:33N 39°27' W 000°19'0 0.0
2015-May-21 11:33N 39°27' W 000°19'0 0.0
2015-May-21 10:33N 39°27' W 000°19'0 0.0
2015-May-21 09:33N 39°27' W 000°19'0 0.0
2015-May-21 08:33N 39°27' W 000°19'0 0.0
2015-May-21 07:33N 39°27' W 000°19'0 0.0
2015-May-21 06:33N 39°27' W 000°19'0 0.0
2015-May-21 05:33N 39°27' W 000°19'0 0.0
2015-May-21 04:33N 39°27' W 000°19'0 0.0
2015-May-21 03:33N 39°27' W 000°19'0 0.0
2015-May-21 02:33N 39°27' W 000°19'0 0.0
2015-May-21 01:33N 39°27' W 000°19'0 0.0
2015-May-21 00:33N 39°27' W 000°19'0 0.0
2015-May-20 23:33N 39°27' W 000°19'0 0.0
2015-May-20 22:33N 39°27' W 000°19'0 0.0
2015-May-20 21:33N 39°27' W 000°19'0 0.0
2015-May-20 20:33N 39°27' W 000°19'0 0.0
2015-May-20 19:33N 39°27' W 000°19'0 0.0
2015-May-20 18:33N 39°27' W 000°19'0 0.0
2015-May-20 17:33N 39°27' W 000°19'0 0.0
2015-May-20 16:33N 39°27' W 000°19'0 0.0
2015-May-20 15:33N 39°27' W 000°19'0 0.0
2015-May-20 14:33N 39°27' W 000°19'0 0.0
2015-May-20 13:33N 39°27' W 000°19'0 0.0
2015-May-20 12:33N 39°27' W 000°19'0 0.0
2015-May-20 11:33N 39°27' W 000°19'0 0.0
2015-May-20 10:33N 39°27' W 000°19'0 0.0
2015-May-20 09:33N 39°27' W 000°19'0 0.0
2015-May-20 08:33N 39°27' W 000°19'0 0.0
2015-May-20 07:33N 39°27' W 000°19'6 6.5
2015-May-20 06:33N 39°24' W 000°12'7714.1
2015-May-20 01:06N 38°07' W 000°01'917.3
2015-May-20 00:34N 37°59' W 000°07'1717.5
2015-May-19 23:33N 37°44' W 000°19'1717.4
2015-May-19 22:33N 37°31' W 000°34'1818.4
2015-May-19 21:33N 37°19' W 000°51'1918.2
2015-May-19 20:32N 37°05' W 001°07'5217.6
2015-May-19 17:34N 36°31' W 001°57'1817.4
2015-May-19 16:33N 36°22' W 002°15'1818.2
2015-May-19 15:33N 36°19' W 002°37'1817.9
2015-May-19 14:34N 36°16' W 002°59'1817.8
2015-May-19 13:33N 36°14' W 003°21'1717.3
2015-May-19 12:33N 36°09' W 003°42'7318.4
2015-May-19 08:33N 35°60' W 005°12'16 0.8
2015-May-18 13:18N 35°54' W 005°30'  

Dump ship's entire track history